createdAt,value
2022-08-14T00:02:15.374Z,20.60
2022-08-14T00:04:45.029Z,20.70
2022-08-14T00:07:13.767Z,20.70
2022-08-14T00:09:55.731Z,20.60
2022-08-14T00:12:33.031Z,20.60
2022-08-14T00:15:02.929Z,20.50
2022-08-14T00:17:30.256Z,20.60
2022-08-14T00:20:02.126Z,20.60
2022-08-14T00:22:56.429Z,20.50
2022-08-14T00:25:17.641Z,20.40
2022-08-14T00:27:45.551Z,20.40
2022-08-14T00:30:17.441Z,20.50
2022-08-14T00:32:52.939Z,20.40
2022-08-14T00:35:32.485Z,20.40
2022-08-14T00:38:11.529Z,20.50
2022-08-14T00:40:39.227Z,20.40
2022-08-14T00:43:14.939Z,20.40
2022-08-14T00:45:43.217Z,20.40
2022-08-14T00:48:34.491Z,20.40
2022-08-14T00:51:09.010Z,20.40
2022-08-14T00:53:38.457Z,20.40
2022-08-14T00:56:08.605Z,20.30
2022-08-14T00:58:45.248Z,20.30
2022-08-14T01:01:18.831Z,20.40
2022-08-14T01:03:46.257Z,20.30
2022-08-14T01:06:20.044Z,20.30
2022-08-14T01:08:57.921Z,20.30
2022-08-14T01:11:31.721Z,20.30
2022-08-14T01:14:05.083Z,20.20
2022-08-14T01:16:52.988Z,20.10
2022-08-14T01:19:39.281Z,20.10
2022-08-14T01:22:12.781Z,20.00
2022-08-14T01:24:43.365Z,20.10
2022-08-14T01:27:24.437Z,20.10
2022-08-14T01:30:03.180Z,20.10
2022-08-14T01:32:37.610Z,20.00
2022-08-14T01:35:17.243Z,20.00
2022-08-14T01:37:58.868Z,19.90
2022-08-14T01:40:36.750Z,19.90
2022-08-14T01:43:14.848Z,20.00
2022-08-14T01:45:48.960Z,19.90
2022-08-14T01:48:25.894Z,19.90
2022-08-14T01:50:53.991Z,19.80
2022-08-14T01:53:22.748Z,19.70
2022-08-14T01:55:51.818Z,19.80
2022-08-14T01:58:28.510Z,19.70
2022-08-14T02:00:57.154Z,19.70
2022-08-14T02:03:30.251Z,19.70
2022-08-14T02:06:04.092Z,19.80
2022-08-14T02:08:53.187Z,19.60
2022-08-14T02:11:24.691Z,19.60
2022-08-14T02:13:54.508Z,19.60
2022-08-14T02:16:26.362Z,19.60
2022-08-14T02:18:56.265Z,19.50
2022-08-14T02:21:27.593Z,19.60
2022-08-14T02:23:55.748Z,19.60
2022-08-14T02:26:30.625Z,19.50
2022-08-14T02:29:03.558Z,19.40
2022-08-14T02:31:42.560Z,19.40
2022-08-14T02:34:20.142Z,19.40
2022-08-14T02:37:04.109Z,19.40
2022-08-14T02:39:36.989Z,19.30
2022-08-14T02:42:06.174Z,19.20
2022-08-14T02:44:39.513Z,19.30
2022-08-14T02:47:14.971Z,19.30
2022-08-14T02:49:46.420Z,19.30
2022-08-14T02:52:55.277Z,19.30
2022-08-14T02:55:09.741Z,19.20
2022-08-14T02:57:40.413Z,19.20
2022-08-14T03:00:10.680Z,19.20
2022-08-14T03:02:56.027Z,19.20
2022-08-14T03:05:30.636Z,19.10
2022-08-14T03:08:09.094Z,19.10
2022-08-14T03:10:41.731Z,19.10
2022-08-14T03:13:19.173Z,19.10
2022-08-14T03:15:48.549Z,19.10
2022-08-14T03:18:31.810Z,19.10
2022-08-14T03:21:04.318Z,19.20
2022-08-14T03:23:37.945Z,19.20
2022-08-14T03:26:13.191Z,19.20
2022-08-14T03:28:51.257Z,19.10
2022-08-14T03:31:26.032Z,19.10
2022-08-14T03:33:56.486Z,19.00
2022-08-14T03:37:37.937Z,19.00
2022-08-14T03:39:22.588Z,19.00
2022-08-14T03:41:56.348Z,18.90
2022-08-14T03:45:18.933Z,18.80
2022-08-14T03:47:16.057Z,18.80
2022-08-14T03:49:46.069Z,18.80
2022-08-14T03:52:37.856Z,18.80
2022-08-14T03:55:09.016Z,18.80
2022-08-14T03:57:37.553Z,18.70
2022-08-14T04:00:13.461Z,18.70
2022-08-14T04:02:55.014Z,18.70
2022-08-14T04:05:22.376Z,18.70
2022-08-14T04:08:08.380Z,18.80
2022-08-14T04:10:39.966Z,18.90
2022-08-14T04:13:07.621Z,18.80
2022-08-14T04:15:56.229Z,18.80
2022-08-14T04:18:23.584Z,18.90
2022-08-14T04:20:54.555Z,18.90
2022-08-14T04:23:32.727Z,18.90
2022-08-14T04:26:08.201Z,18.80
2022-08-14T04:29:02.226Z,18.70
2022-08-14T04:32:58.926Z,18.60
2022-08-14T04:34:17.129Z,18.60
2022-08-14T04:37:07.347Z,18.60
2022-08-14T04:39:56.899Z,18.50
2022-08-14T04:42:47.477Z,18.40
2022-08-14T04:45:21.860Z,18.70
2022-08-14T04:48:10.169Z,19.00
2022-08-14T04:50:44.534Z,19.30
2022-08-14T04:53:17.383Z,19.40
2022-08-14T04:55:51.763Z,19.60
2022-08-14T04:58:32.950Z,19.70
2022-08-14T05:01:03.912Z,19.90
2022-08-14T05:03:32.715Z,20.10
2022-08-14T05:06:03.243Z,20.20
2022-08-14T05:08:50.723Z,20.30
2022-08-14T05:11:20.122Z,20.40
2022-08-14T05:16:34.366Z,20.70
2022-08-14T05:19:18.244Z,20.90
2022-08-14T05:21:59.585Z,21.00
2022-08-14T05:24:29.043Z,21.20
2022-08-14T05:26:56.309Z,21.40
2022-08-14T05:29:23.862Z,21.70
2022-08-14T05:31:57.252Z,22.20
2022-08-14T05:34:28.932Z,22.60
2022-08-14T05:37:02.881Z,23.00
2022-08-14T05:39:31.261Z,23.10
2022-08-14T05:42:00.608Z,23.10
2022-08-14T05:44:30.685Z,23.20
2022-08-14T05:46:58.993Z,23.00
2022-08-14T05:49:33.741Z,22.90
2022-08-14T05:52:04.440Z,22.80
2022-08-14T05:54:37.441Z,23.00
2022-08-14T05:57:05.083Z,23.00
2022-08-14T05:59:38.848Z,23.00
2022-08-14T06:02:10.154Z,23.00
2022-08-14T06:04:38.186Z,23.00
2022-08-14T06:07:05.844Z,23.20
2022-08-14T06:09:35.745Z,23.40
2022-08-14T06:12:11.929Z,23.40
2022-08-14T06:14:39.471Z,23.40
2022-08-14T06:17:06.921Z,23.50
2022-08-14T06:19:34.086Z,23.60
2022-08-14T06:22:02.143Z,23.80
2022-08-14T06:24:30.694Z,23.80
2022-08-14T06:27:06.374Z,23.90
2022-08-14T06:29:38.112Z,24.00
2022-08-14T06:32:36.862Z,24.00
2022-08-14T06:35:11.479Z,24.10
2022-08-14T06:37:52.010Z,24.40
2022-08-14T06:40:28.438Z,24.80
2022-08-14T06:43:00.312Z,25.00
2022-08-14T06:45:42.077Z,25.20
2022-08-14T06:48:17.792Z,25.20
2022-08-14T06:50:46.698Z,25.10
2022-08-14T06:53:14.852Z,25.70
2022-08-14T06:55:58.519Z,25.90
2022-08-14T06:58:31.346Z,25.80
2022-08-14T07:01:25.030Z,26.10
2022-08-14T07:04:22.928Z,26.40
2022-08-14T07:06:52.054Z,26.30
2022-08-14T07:09:24.851Z,26.20
2022-08-14T07:11:56.391Z,26.00
2022-08-14T07:14:25.067Z,26.30
2022-08-14T07:16:53.688Z,26.40
2022-08-14T07:19:21.191Z,26.50
2022-08-14T07:21:48.602Z,27.00
2022-08-14T07:24:22.115Z,27.10
2022-08-14T07:26:58.344Z,26.80
2022-08-14T07:29:28.991Z,26.80
2022-08-14T07:31:56.142Z,26.60
2022-08-14T07:34:26.374Z,26.40
2022-08-14T07:37:05.942Z,26.30
2022-08-14T07:39:34.289Z,26.50
2022-08-14T07:42:01.827Z,27.00
2022-08-14T07:44:35.773Z,26.90
2022-08-14T07:47:16.668Z,26.70
2022-08-14T07:49:55.443Z,26.30
2022-08-14T07:52:31.098Z,26.10
2022-08-14T07:55:00.289Z,26.20
2022-08-14T07:57:28.680Z,26.30
2022-08-14T07:59:55.744Z,26.80
2022-08-14T08:02:24.042Z,26.80
2022-08-14T08:04:59.239Z,26.80
2022-08-14T08:07:32.141Z,26.80
2022-08-14T08:10:46.320Z,26.50
2022-08-14T08:13:16.963Z,26.70
2022-08-14T08:15:51.989Z,27.10
2022-08-14T08:18:20.372Z,27.40
2022-08-14T08:20:55.324Z,27.50
2022-08-14T08:23:34.411Z,27.40
2022-08-14T08:26:07.329Z,27.40
2022-08-14T08:28:34.472Z,27.30
2022-08-14T08:31:03.833Z,27.20
2022-08-14T08:33:36.858Z,27.10
2022-08-14T08:36:12.981Z,27.10
2022-08-14T08:39:17.976Z,27.20
2022-08-14T08:41:41.655Z,27.30
2022-08-14T08:44:30.060Z,27.40
2022-08-14T08:47:00.126Z,27.10
2022-08-14T08:49:52.801Z,26.90
2022-08-14T08:52:31.771Z,26.80
2022-08-14T08:55:00.845Z,26.70
2022-08-14T08:57:36.072Z,26.90
2022-08-14T09:00:24.518Z,26.90
2022-08-14T09:02:57.605Z,27.30
2022-08-14T09:05:26.129Z,27.50
2022-08-14T09:07:56.416Z,27.50
2022-08-14T09:10:23.973Z,27.60
2022-08-14T09:12:56.497Z,27.70
2022-08-14T09:15:24.200Z,27.70
2022-08-14T09:17:52.339Z,27.90
2022-08-14T09:20:26.454Z,28.00
2022-08-14T09:22:58.440Z,28.10
2022-08-14T09:25:58.731Z,28.20
2022-08-14T09:28:14.501Z,28.20
2022-08-14T09:31:00.894Z,28.20
2022-08-14T09:34:19.688Z,28.10
2022-08-14T09:37:31.887Z,28.10
2022-08-14T09:40:21.021Z,28.10
2022-08-14T09:42:55.045Z,28.10
2022-08-14T09:45:24.700Z,28.20
2022-08-14T09:47:57.889Z,28.30
2022-08-14T09:50:32.022Z,28.50
2022-08-14T09:53:03.758Z,28.50
2022-08-14T09:55:42.321Z,28.50
2022-08-14T09:58:22.550Z,28.40
2022-08-14T10:00:54.802Z,28.60
2022-08-14T10:03:36.436Z,28.60
2022-08-14T10:06:19.482Z,28.70
2022-08-14T10:09:16.888Z,28.80
2022-08-14T10:11:55.205Z,29.00
2022-08-14T10:14:35.849Z,29.10
2022-08-14T10:17:07.086Z,28.80
2022-08-14T10:19:47.080Z,28.70
2022-08-14T10:23:15.574Z,28.90
2022-08-14T10:25:39.657Z,28.90
2022-08-14T10:28:39.506Z,28.70
2022-08-14T10:30:57.551Z,28.60
2022-08-14T10:34:13.209Z,28.60
2022-08-14T10:37:14.431Z,28.90
2022-08-14T10:40:01.387Z,29.10
2022-08-14T10:42:39.722Z,29.20
2022-08-14T10:45:35.741Z,29.20
2022-08-14T10:48:34.521Z,29.40
2022-08-14T10:51:04.844Z,29.70
